Bark River, Michigan
Current Conditions -  °F | °C
As of 3:15 AM on Thursday 27 Nov 2014 (Local Time) from KESC Reporting Station
Overcast Overcast  
Wind Chill: 12°   Ceiling: 4200
Heat Index: 23°   Visibility: 10mi
Dew Point: 16°   Wind: 10mph
Humidity: 74%   Direction: 330°NNW
Pressure: 30.2"   Gusts: 16mph
Location:  45.71°N, 87.3°W
Report Text: KESC 270815Z AUTO 33009G14KT 10SM FEW018 OVC042 M05/M09 A3020 RMK AO1
Loading
Personal Weather Stations






























Interactive Weather Map New forecast layout! Learn more

10-Day Weather Forecast

Advertisements
Track Severe Weather on mobile